createdAt,value
2023-05-15T16:55:19.392Z,101022.61
2023-05-15T16:57:46.773Z,101015.92
2023-05-15T17:00:14.523Z,101020.98
2023-05-15T17:02:42.466Z,101024.48
2023-05-15T17:05:10.568Z,101027.37
2023-05-15T17:07:38.294Z,101026.34
2023-05-15T17:10:09.202Z,101027.89
2023-05-15T17:12:36.297Z,101026.98
2023-05-15T17:15:03.750Z,101027.64
2023-05-15T17:17:30.864Z,101023.31
2023-05-15T17:19:58.345Z,101025.45
2023-05-15T17:22:26.519Z,101028.18
2023-05-15T17:24:53.473Z,101032.96
2023-05-15T17:27:20.679Z,101036.60
2023-05-15T17:29:47.796Z,101040.39
2023-05-15T17:32:16.047Z,101042.41
2023-05-15T17:34:43.470Z,101043.09
2023-05-15T17:37:10.858Z,101046.79
2023-05-15T17:39:37.808Z,101045.77
2023-05-15T17:42:05.373Z,101043.27
2023-05-15T17:44:32.409Z,101043.23
2023-05-15T17:46:59.465Z,101043.91
2023-05-15T17:49:26.716Z,101043.04
2023-05-15T17:51:53.974Z,101051.27
2023-05-15T17:54:20.925Z,101048.80
2023-05-15T17:56:48.399Z,101047.35
2023-05-15T17:59:15.644Z,101050.04
2023-05-15T18:01:42.824Z,101051.95
2023-05-15T18:04:10.102Z,101052.39
2023-05-15T18:06:37.153Z,101051.63
2023-05-15T18:09:05.430Z,101059.89
2023-05-15T18:11:32.421Z,101059.64
2023-05-15T18:13:59.310Z,101063.06
2023-05-15T18:16:26.540Z,101061.30
2023-05-15T18:18:53.900Z,101062.41
2023-05-15T18:21:21.212Z,101063.15
2023-05-15T18:23:48.266Z,101066.13
2023-05-15T18:26:15.122Z,101064.36
2023-05-15T18:28:41.949Z,101070.59
2023-05-15T18:31:09.201Z,101073.21
2023-05-15T18:33:36.462Z,101077.02
2023-05-15T18:36:05.956Z,101078.75
2023-05-15T18:38:34.686Z,101074.01
2023-05-15T18:41:01.678Z,101073.31
2023-05-15T18:43:28.778Z,101077.14
2023-05-15T18:45:55.778Z,101078.64
2023-05-15T18:48:22.728Z,101080.02
2023-05-15T18:50:49.681Z,101079.59
2023-05-15T18:53:17.238Z,101078.89
2023-05-15T18:55:45.403Z,101083.70
2023-05-15T18:58:12.347Z,101083.04
2023-05-15T19:00:39.485Z,101083.46
2023-05-15T19:03:08.533Z,101085.62
2023-05-15T19:05:35.876Z,101084.45
2023-05-15T19:08:03.405Z,101085.81
2023-05-15T19:10:30.779Z,101088.34
2023-05-15T19:12:57.921Z,101088.80
2023-05-15T19:15:25.416Z,101088.80
2023-05-15T19:17:52.766Z,101094.27
2023-05-15T19:20:20.387Z,101096.14
2023-05-15T19:22:47.331Z,101097.42
2023-05-15T19:25:14.291Z,101106.38
2023-05-15T19:27:41.478Z,101105.10
2023-05-15T19:30:10.253Z,101106.53
2023-05-15T19:46:12.139Z,101103.48
2023-05-15T19:48:39.101Z,101107.20
2023-05-15T19:51:06.057Z,101109.20
2023-05-15T19:53:32.909Z,101108.91
2023-05-15T19:55:59.780Z,101108.00
